createdAt,value
2018-10-18T00:02:20.821Z,67.27
2018-10-18T00:04:50.432Z,61.03
2018-10-18T00:07:21.106Z,63.93
2018-10-18T00:09:50.197Z,64.70
2018-10-18T00:12:19.278Z,64.37
2018-10-18T00:14:53.528Z,64.00
2018-10-18T00:17:28.117Z,65.63
2018-10-18T00:19:59.309Z,61.50
2018-10-18T00:22:29.514Z,64.00
2018-10-18T00:24:59.008Z,64.63
2018-10-18T00:27:28.099Z,64.83
2018-10-18T00:29:58.014Z,62.70
2018-10-18T00:32:27.178Z,69.67
2018-10-18T00:34:56.806Z,65.90
2018-10-18T00:37:26.252Z,64.70
2018-10-18T00:39:55.377Z,66.37
2018-10-18T00:42:24.882Z,66.40
2018-10-18T00:44:53.846Z,66.80
2018-10-18T00:47:23.051Z,63.87
2018-10-18T00:49:52.235Z,68.17
2018-10-18T00:52:23.071Z,72.83
2018-10-18T00:54:52.979Z,68.13
2018-10-18T00:57:21.982Z,67.40
2018-10-18T01:00:02.354Z,63.60
2018-10-18T01:02:49.107Z,65.73
2018-10-18T01:05:19.926Z,65.70
2018-10-18T01:07:50.025Z,62.73
2018-10-18T01:10:21.192Z,65.23
2018-10-18T01:12:50.508Z,64.70
2018-10-18T01:15:19.908Z,67.90
2018-10-18T01:17:49.278Z,62.27
2018-10-18T01:20:18.321Z,64.47
2018-10-18T01:22:48.725Z,67.83
2018-10-18T01:25:18.048Z,64.23
2018-10-18T01:27:47.568Z,67.40
2018-10-18T01:30:17.026Z,61.20
2018-10-18T01:32:46.014Z,62.07
2018-10-18T01:35:15.016Z,61.97
2018-10-18T01:38:00.740Z,62.60
2018-10-18T01:40:39.769Z,63.07
2018-10-18T01:43:09.675Z,60.50
2018-10-18T01:45:38.731Z,64.50
2018-10-18T01:48:08.093Z,62.80
2018-10-18T01:50:37.222Z,62.63
2018-10-18T01:53:06.907Z,64.00
2018-10-18T01:55:36.259Z,61.83
2018-10-18T01:58:05.779Z,63.60
2018-10-18T02:00:36.787Z,63.30
2018-10-18T02:03:06.235Z,62.63
2018-10-18T02:05:35.287Z,64.67
2018-10-18T02:08:04.377Z,65.83
2018-10-18T02:10:34.003Z,71.63
2018-10-18T02:13:03.063Z,64.57
2018-10-18T02:15:32.192Z,66.50
2018-10-18T02:18:01.339Z,66.70
2018-10-18T02:20:30.679Z,68.73
2018-10-18T02:22:59.998Z,69.43
2018-10-18T02:25:29.072Z,65.60
2018-10-18T02:27:58.016Z,67.40
2018-10-18T02:30:28.324Z,69.00
2018-10-18T02:32:57.359Z,70.07
2018-10-18T02:35:26.382Z,74.60
2018-10-18T02:37:55.680Z,73.63
2018-10-18T02:40:24.874Z,84.30
2018-10-18T02:42:54.232Z,84.87
2018-10-18T02:45:24.101Z,85.60
2018-10-18T02:47:53.275Z,95.50
2018-10-18T02:50:23.113Z,90.50
2018-10-18T02:52:53.107Z,95.27
2018-10-18T02:55:24.357Z,92.97
2018-10-18T02:57:54.628Z,96.43
2018-10-18T03:00:25.939Z,96.53
2018-10-18T03:02:55.349Z,95.77
2018-10-18T03:05:24.347Z,94.50
2018-10-18T03:07:53.752Z,104.70
2018-10-18T03:10:22.936Z,99.90
2018-10-18T03:12:51.958Z,100.33
2018-10-18T03:15:20.965Z,100.47
2018-10-18T03:17:49.892Z,107.67
2018-10-18T03:20:19.220Z,106.60
2018-10-18T03:22:48.241Z,101.90
2018-10-18T03:25:17.165Z,109.00
2018-10-18T03:27:46.541Z,102.97
2018-10-18T03:30:16.734Z,105.23
2018-10-18T03:32:45.706Z,101.57
2018-10-18T03:35:14.944Z,99.00
2018-10-18T03:37:44.852Z,105.83
2018-10-18T03:40:13.720Z,94.20
2018-10-18T03:42:44.181Z,94.73
2018-10-18T03:45:13.090Z,96.47
2018-10-18T03:47:42.049Z,94.90
2018-10-18T03:50:11.501Z,91.00
2018-10-18T03:52:40.461Z,89.30
2018-10-18T03:55:10.417Z,89.00
2018-10-18T03:57:39.440Z,90.67
2018-10-18T04:00:09.148Z,95.10
2018-10-18T04:02:39.094Z,89.50
2018-10-18T04:05:08.978Z,92.40
2018-10-18T04:07:39.143Z,88.67
2018-10-18T04:10:08.697Z,91.80
2018-10-18T04:12:37.977Z,91.30
2018-10-18T04:15:07.929Z,91.73
2018-10-18T04:17:36.962Z,88.93
2018-10-18T04:20:07.731Z,87.70
2018-10-18T04:22:37.005Z,141.67
2018-10-18T04:25:07.157Z,91.83
2018-10-18T04:27:36.152Z,94.50
2018-10-18T04:30:06.058Z,90.77
2018-10-18T04:33:10.558Z,88.77
2018-10-18T04:35:52.334Z,86.80
2018-10-18T04:38:21.822Z,89.97
2018-10-18T04:40:51.180Z,85.77
2018-10-18T04:43:29.728Z,82.37
2018-10-18T04:45:59.364Z,84.47
2018-10-18T04:48:28.746Z,88.17
2018-10-18T04:50:57.817Z,85.10
2018-10-18T04:53:27.671Z,85.07
2018-10-18T04:55:57.568Z,81.90
2018-10-18T04:58:26.582Z,81.73
2018-10-18T05:00:55.673Z,79.50
2018-10-18T05:03:24.576Z,82.93
2018-10-18T05:05:56.163Z,83.47
2018-10-18T05:08:26.660Z,78.47
2018-10-18T05:10:57.628Z,77.90
2018-10-18T05:13:27.534Z,75.63
2018-10-18T05:15:56.512Z,81.13
2018-10-18T05:18:25.647Z,78.73
2018-10-18T05:20:55.760Z,80.60
2018-10-18T05:23:26.038Z,75.40
2018-10-18T05:25:55.240Z,71.20
2018-10-18T05:28:25.932Z,74.00
2018-10-18T05:30:55.336Z,70.07
2018-10-18T05:33:24.384Z,60.87
2018-10-18T05:35:53.624Z,68.63
2018-10-18T05:38:26.211Z,69.00
2018-10-18T05:41:01.156Z,77.10
2018-10-18T05:43:42.994Z,67.63
2018-10-18T05:46:13.947Z,65.03
2018-10-18T05:48:44.609Z,69.60
2018-10-18T05:51:14.513Z,65.90
2018-10-18T05:53:44.552Z,66.40
2018-10-18T05:56:15.598Z,67.70
2018-10-18T05:58:45.768Z,66.20
2018-10-18T06:01:19.604Z,64.60
2018-10-18T06:03:48.778Z,66.20
2018-10-18T06:06:19.172Z,64.80
2018-10-18T06:08:58.379Z,59.20
2018-10-18T06:11:29.298Z,68.37
2018-10-18T06:13:59.229Z,60.33
2018-10-18T06:16:28.854Z,64.70
2018-10-18T06:18:59.550Z,64.50
2018-10-18T06:21:31.558Z,62.40
2018-10-18T06:24:02.202Z,64.47
2018-10-18T06:26:38.868Z,63.27
2018-10-18T06:29:16.608Z,62.57
2018-10-18T06:31:58.977Z,61.30
2018-10-18T06:34:31.103Z,63.03
2018-10-18T06:37:00.261Z,58.80
2018-10-18T06:39:29.459Z,62.73
2018-10-18T06:42:00.191Z,62.13
2018-10-18T06:44:30.491Z,66.30
2018-10-18T06:47:00.097Z,58.30
2018-10-18T06:49:30.959Z,59.60
2018-10-18T06:52:01.676Z,62.30
2018-10-18T06:54:31.181Z,63.00
2018-10-18T06:57:03.771Z,63.73
2018-10-18T06:59:33.818Z,61.03
2018-10-18T07:02:03.070Z,59.10
2018-10-18T07:04:32.447Z,62.83
2018-10-18T07:07:01.631Z,59.43
2018-10-18T07:09:33.300Z,63.70
2018-10-18T07:12:03.085Z,60.37
2018-10-18T07:14:32.875Z,61.53
2018-10-18T07:17:01.867Z,64.67
2018-10-18T07:19:33.572Z,70.07
2018-10-18T07:22:03.302Z,59.20
2018-10-18T07:24:33.770Z,61.53
2018-10-18T07:27:03.193Z,59.30
2018-10-18T07:29:32.307Z,63.53
2018-10-18T07:32:03.653Z,58.30
2018-10-18T07:34:35.093Z,59.13
2018-10-18T07:37:07.187Z,58.03
2018-10-18T07:39:37.623Z,57.97
2018-10-18T07:45:11.619Z,57.60
2018-10-18T07:47:41.544Z,54.70
2018-10-18T07:50:11.434Z,55.13
2018-10-18T07:52:41.170Z,56.00
2018-10-18T07:55:11.281Z,56.07
2018-10-18T07:57:43.676Z,53.73
2018-10-18T08:00:17.714Z,53.03
2018-10-18T08:02:53.564Z,55.80
2018-10-18T08:05:24.299Z,50.80
2018-10-18T08:07:54.780Z,50.50
2018-10-18T08:10:25.485Z,53.03
2018-10-18T08:12:54.793Z,50.60
2018-10-18T08:15:24.501Z,52.67
2018-10-18T08:17:54.692Z,52.73
2018-10-18T08:20:24.720Z,56.43
2018-10-18T08:22:54.267Z,53.10
2018-10-18T08:25:23.754Z,51.90
2018-10-18T08:27:53.975Z,52.60
2018-10-18T08:30:24.645Z,51.57
2018-10-18T08:32:55.100Z,53.43
2018-10-18T08:35:24.367Z,50.37
2018-10-18T08:37:54.205Z,47.97
2018-10-18T08:40:23.676Z,48.57
2018-10-18T08:42:53.917Z,47.47
2018-10-18T08:45:23.124Z,50.23
2018-10-18T08:47:52.593Z,50.73
2018-10-18T08:50:22.164Z,49.37
2018-10-18T08:52:53.350Z,50.50
2018-10-18T08:55:22.665Z,52.90
2018-10-18T08:57:52.028Z,46.10
2018-10-18T09:00:22.335Z,42.70
2018-10-18T09:02:52.520Z,44.10
2018-10-18T09:05:23.407Z,42.97
2018-10-18T09:07:53.161Z,42.90
2018-10-18T09:10:22.765Z,44.70
2018-10-18T09:12:54.106Z,43.30
2018-10-18T09:15:24.002Z,44.60
2018-10-18T09:17:56.148Z,48.20
2018-10-18T09:20:25.665Z,45.27
2018-10-18T09:22:55.689Z,45.30
2018-10-18T09:25:25.163Z,45.57
2018-10-18T09:27:55.361Z,44.83
2018-10-18T09:30:29.563Z,49.07
2018-10-18T09:33:00.419Z,46.73
2018-10-18T09:35:41.668Z,50.87
2018-10-18T09:38:10.950Z,46.77
2018-10-18T09:40:41.312Z,48.07
2018-10-18T09:43:10.649Z,46.67
2018-10-18T09:45:41.279Z,47.83
2018-10-18T09:48:10.600Z,47.50
2018-10-18T09:50:41.192Z,46.13
2018-10-18T09:53:11.052Z,49.03
2018-10-18T09:55:40.440Z,45.10
2018-10-18T09:58:10.309Z,46.93
2018-10-18T10:00:44.400Z,51.23
2018-10-18T10:03:16.711Z,43.80
2018-10-18T10:05:48.300Z,45.17
2018-10-18T10:08:26.970Z,45.40
2018-10-18T10:10:59.312Z,41.87
2018-10-18T10:13:29.314Z,42.07
2018-10-18T10:15:59.326Z,43.90
2018-10-18T10:18:30.420Z,43.97
2018-10-18T10:20:59.822Z,46.63
2018-10-18T10:26:13.087Z,107.10
2018-10-18T10:28:44.388Z,50.63
2018-10-18T10:31:16.165Z,48.23
2018-10-18T10:33:45.932Z,48.23
2018-10-18T10:36:15.477Z,46.67
2018-10-18T10:38:46.191Z,46.97
2018-10-18T10:41:15.615Z,50.70
2018-10-18T10:43:46.132Z,45.53
2018-10-18T10:46:25.357Z,48.47
2018-10-18T10:48:56.943Z,45.47
2018-10-18T10:51:28.986Z,48.37
2018-10-18T10:54:02.349Z,44.60
2018-10-18T10:56:35.369Z,49.37
2018-10-18T10:59:14.596Z,48.67
2018-10-18T11:01:47.533Z,54.07
2018-10-18T11:04:17.721Z,48.07
2018-10-18T11:06:48.519Z,46.00
2018-10-18T11:09:18.756Z,44.33
2018-10-18T11:11:50.800Z,52.03
2018-10-18T11:14:22.476Z,45.60
2018-10-18T11:16:55.104Z,49.37
2018-10-18T11:19:28.374Z,48.53
2018-10-18T11:21:59.334Z,48.53
2018-10-18T11:24:29.915Z,40.83
2018-10-18T11:27:00.878Z,44.37
2018-10-18T11:29:33.850Z,59.63
2018-10-18T11:32:03.578Z,44.20
2018-10-18T11:34:39.355Z,40.47
2018-10-18T11:37:13.160Z,36.00
2018-10-18T11:42:30.128Z,34.53
2018-10-18T11:45:00.612Z,34.50
2018-10-18T11:47:30.793Z,34.77
2018-10-18T11:50:00.237Z,35.10
2018-10-18T11:52:29.338Z,33.40
2018-10-18T11:55:04.758Z,34.83
2018-10-18T11:57:36.299Z,37.93
2018-10-18T12:00:11.274Z,35.47
2018-10-18T12:02:40.709Z,39.60
2018-10-18T12:05:13.328Z,36.30
2018-10-18T12:07:44.456Z,36.17
2018-10-18T12:10:14.305Z,40.97
2018-10-18T12:12:45.302Z,39.33
2018-10-18T12:15:15.239Z,33.73
2018-10-18T12:17:46.201Z,34.07
2018-10-18T12:20:19.841Z,32.07
2018-10-18T12:22:52.814Z,30.60
2018-10-18T12:25:22.864Z,31.03
2018-10-18T12:28:20.408Z,29.30
2018-10-18T12:30:51.809Z,29.67
2018-10-18T12:33:26.199Z,28.63
2018-10-18T12:35:56.492Z,27.17
2018-10-18T12:38:56.248Z,33.20
2018-10-18T12:46:37.511Z,27.17
2018-10-18T12:49:07.276Z,26.43
2018-10-18T12:51:37.016Z,25.97
2018-10-18T12:54:07.642Z,27.40
2018-10-18T12:56:39.394Z,27.63
2018-10-18T12:59:30.981Z,25.27
2018-10-18T13:02:01.427Z,29.00
2018-10-18T13:04:33.077Z,29.07
2018-10-18T13:07:03.216Z,28.00
2018-10-18T13:09:33.499Z,29.00
2018-10-18T13:12:03.785Z,29.57
2018-10-18T13:14:34.087Z,27.63
2018-10-18T13:17:05.287Z,28.40
2018-10-18T13:19:37.063Z,27.77
2018-10-18T13:22:06.814Z,26.60
2018-10-18T13:24:36.256Z,26.60
2018-10-18T13:27:05.919Z,37.53
2018-10-18T13:29:36.177Z,27.17
2018-10-18T13:32:07.936Z,23.60
2018-10-18T13:35:02.580Z,23.83
2018-10-18T13:37:39.326Z,23.53
2018-10-18T13:40:19.654Z,22.30
2018-10-18T13:42:50.450Z,20.50
2018-10-18T13:45:20.886Z,20.03
2018-10-18T13:48:04.744Z,24.00
2018-10-18T13:50:36.042Z,14.20
2018-10-18T13:53:06.308Z,16.67
2018-10-18T13:55:37.168Z,15.70
2018-10-18T13:58:07.768Z,14.73
2018-10-18T14:00:37.463Z,15.40
2018-10-18T14:03:10.188Z,16.73
2018-10-18T14:05:40.424Z,15.93
2018-10-18T14:08:24.164Z,16.93
2018-10-18T14:10:56.323Z,18.77
2018-10-18T14:24:12.909Z,13.43
2018-10-18T14:26:43.593Z,11.77
2018-10-18T14:29:13.610Z,13.13
2018-10-18T14:31:43.344Z,14.57
2018-10-18T14:34:13.450Z,13.00
2018-10-18T14:36:42.779Z,12.70
2018-10-18T14:39:13.784Z,11.70
2018-10-18T14:41:46.256Z,11.80
2018-10-18T14:44:18.909Z,15.20
2018-10-18T14:46:49.197Z,16.63
2018-10-18T14:49:19.591Z,16.70
2018-10-18T14:51:59.364Z,13.73
2018-10-18T14:54:30.642Z,13.60
2018-10-18T14:56:59.903Z,11.37
2018-10-18T14:59:31.331Z,11.70
2018-10-18T15:02:01.647Z,10.80
2018-10-18T15:04:31.920Z,14.47
2018-10-18T15:07:09.408Z,10.90
2018-10-18T15:09:39.259Z,9.40
2018-10-18T15:12:10.369Z,8.00
2018-10-18T15:14:42.390Z,8.10
2018-10-18T15:17:18.362Z,8.70
2018-10-18T15:19:55.460Z,9.70
2018-10-18T15:22:27.415Z,11.60
2018-10-18T15:24:57.645Z,11.17
2018-10-18T15:27:32.789Z,8.27
2018-10-18T15:30:03.346Z,8.30
2018-10-18T15:32:35.228Z,12.80
2018-10-18T15:35:07.118Z,7.23
2018-10-18T15:37:57.221Z,6.20
2018-10-18T15:40:27.464Z,6.20
2018-10-18T15:42:59.647Z,4.87
2018-10-18T15:45:30.720Z,5.37
2018-10-18T15:48:00.343Z,4.00
2018-10-18T15:50:33.230Z,5.10
2018-10-18T15:53:05.065Z,5.20
2018-10-18T15:55:35.839Z,5.57
2018-10-18T15:58:09.549Z,6.00
2018-10-18T16:00:38.885Z,10.20
2018-10-18T16:03:25.819Z,7.10
2018-10-18T16:06:11.282Z,6.60
2018-10-18T16:08:44.139Z,9.30
2018-10-18T16:11:25.183Z,5.50
2018-10-18T16:14:08.053Z,6.70
2018-10-18T16:19:38.470Z,11.30
2018-10-18T16:22:10.800Z,12.90
2018-10-18T16:24:42.258Z,7.70
2018-10-18T16:27:20.643Z,7.33
2018-10-18T16:29:52.129Z,10.70
2018-10-18T16:32:34.218Z,9.40
2018-10-18T16:35:09.426Z,11.23
2018-10-18T16:37:43.249Z,12.67
2018-10-18T16:44:57.725Z,8.03
2018-10-18T16:47:29.677Z,8.97
2018-10-18T16:50:00.687Z,10.77
2018-10-18T16:52:30.985Z,10.10
2018-10-18T16:55:08.827Z,13.67
2018-10-18T16:58:02.621Z,11.37
2018-10-18T17:00:39.809Z,12.57
2018-10-18T17:03:13.249Z,13.00
2018-10-18T17:05:46.754Z,13.07
2018-10-18T17:08:24.261Z,12.37
2018-10-18T17:10:56.989Z,12.30
2018-10-18T17:13:37.079Z,12.93
2018-10-18T17:16:12.194Z,10.80
2018-10-18T17:18:47.667Z,15.27
2018-10-18T17:21:23.731Z,12.73
2018-10-18T17:23:57.741Z,14.10
2018-10-18T17:26:33.181Z,15.83
2018-10-18T17:29:07.947Z,17.07
2018-10-18T17:31:55.448Z,12.70
2018-10-18T17:34:32.089Z,17.13
2018-10-18T17:37:29.228Z,23.13
2018-10-18T17:40:18.709Z,19.73
2018-10-18T17:43:19.608Z,14.87
2018-10-18T17:45:52.237Z,14.10
2018-10-18T17:48:28.698Z,12.97
2018-10-18T17:51:09.647Z,13.00
2018-10-18T17:53:41.548Z,12.77
2018-10-18T17:56:14.560Z,10.70
2018-10-18T17:58:53.960Z,11.77
2018-10-18T18:01:35.095Z,10.97
2018-10-18T18:04:07.020Z,11.37
2018-10-18T18:06:43.334Z,9.23
2018-10-18T18:09:16.437Z,12.13
2018-10-18T18:11:47.613Z,9.43
2018-10-18T18:14:18.977Z,8.67
2018-10-18T18:16:51.526Z,10.30
2018-10-18T18:19:36.580Z,12.43
2018-10-18T18:22:11.446Z,20.73
2018-10-18T18:24:45.168Z,15.73
2018-10-18T18:27:17.963Z,11.83
2018-10-18T18:29:52.321Z,11.30
2018-10-18T18:32:24.861Z,11.57
2018-10-18T18:34:59.468Z,13.97
2018-10-18T18:37:34.036Z,14.60
2018-10-18T18:40:05.366Z,12.00
2018-10-18T18:42:42.533Z,14.63
2018-10-18T18:45:44.250Z,14.17
2018-10-18T18:48:23.762Z,12.07
2018-10-18T18:51:10.200Z,13.60
2018-10-18T18:53:46.405Z,14.60
2018-10-18T18:56:34.321Z,41.03
2018-10-18T19:01:50.716Z,16.50
2018-10-18T19:04:24.433Z,16.93
2018-10-18T19:06:58.348Z,17.70
2018-10-18T19:09:40.183Z,20.70
2018-10-18T19:12:29.931Z,18.60
2018-10-18T19:15:17.519Z,21.27
2018-10-18T19:18:08.706Z,22.43
2018-10-18T19:20:43.358Z,22.67
2018-10-18T19:23:21.484Z,36.63
2018-10-18T19:25:56.429Z,23.60
2018-10-18T19:28:28.742Z,23.30
2018-10-18T19:31:02.658Z,61.23
2018-10-18T19:33:35.542Z,25.30
2018-10-18T19:36:07.853Z,25.73
2018-10-18T19:38:52.266Z,26.10
2018-10-18T19:41:34.837Z,29.53
2018-10-18T19:44:05.081Z,29.03
2018-10-18T19:46:37.097Z,127.77
2018-10-18T19:49:06.543Z,30.47
2018-10-18T19:52:01.649Z,30.23
2018-10-18T19:57:27.525Z,34.13
2018-10-18T20:11:33.343Z,31.70
2018-10-18T20:21:36.879Z,28.20
2018-10-18T20:24:34.064Z,28.37
2018-10-18T20:27:06.053Z,29.77
2018-10-18T20:33:38.602Z,30.77
2018-10-18T20:36:11.808Z,30.63
2018-10-18T20:38:48.218Z,33.17
2018-10-18T20:41:23.066Z,30.43
2018-10-18T20:43:55.451Z,31.67
2018-10-18T20:46:29.328Z,31.43
2018-10-18T20:49:07.067Z,29.80
2018-10-18T20:51:52.167Z,26.70
2018-10-18T20:54:31.936Z,34.93
2018-10-18T20:57:07.387Z,246.47
2018-10-18T21:00:13.207Z,36.70
2018-10-18T21:03:03.080Z,30.63
2018-10-18T21:05:48.091Z,49.57
2018-10-18T21:08:23.753Z,34.70
2018-10-18T21:10:54.786Z,37.70
2018-10-18T21:13:32.293Z,63.80
2018-10-18T21:16:17.021Z,31.67
2018-10-18T21:18:57.028Z,34.27
2018-10-18T21:21:38.532Z,32.77
2018-10-18T21:24:10.277Z,44.70
2018-10-18T21:26:51.411Z,48.07
2018-10-18T21:29:34.630Z,49.87
2018-10-18T21:32:29.717Z,36.83
2018-10-18T21:35:14.922Z,87.40
2018-10-18T21:37:50.364Z,39.80
2018-10-18T21:40:27.314Z,33.97
2018-10-18T21:43:05.113Z,55.67
2018-10-18T21:45:42.758Z,36.30
2018-10-18T21:48:22.973Z,49.93
2018-10-18T21:50:57.026Z,32.63
2018-10-18T21:53:29.546Z,33.90
2018-10-18T21:56:06.842Z,50.90
2018-10-18T21:58:46.722Z,123.03
2018-10-18T22:07:52.055Z,37.93
2018-10-18T22:10:24.084Z,28.83
2018-10-18T22:13:15.980Z,44.33
2018-10-18T22:15:45.824Z,34.30
2018-10-18T22:18:17.233Z,35.10
2018-10-18T22:20:49.326Z,32.90
2018-10-18T22:23:19.921Z,110.17
2018-10-18T22:26:20.757Z,67.20
2018-10-18T22:29:15.936Z,29.87
2018-10-18T22:31:45.827Z,29.30
2018-10-18T22:34:19.957Z,41.60
2018-10-18T22:36:50.048Z,42.30
2018-10-18T22:39:20.505Z,46.33
2018-10-18T22:41:51.096Z,29.17
2018-10-18T22:44:21.462Z,26.40
2018-10-18T22:46:52.372Z,31.27
2018-10-18T22:49:28.186Z,27.93
2018-10-18T22:51:59.969Z,32.73
2018-10-18T22:54:31.016Z,36.17
2018-10-18T22:57:00.773Z,29.67
2018-10-18T22:59:30.393Z,27.53
2018-10-18T23:02:00.488Z,29.50
2018-10-18T23:04:31.237Z,31.60
2018-10-18T23:07:00.913Z,28.07
2018-10-18T23:09:30.822Z,56.87
2018-10-18T23:12:00.418Z,77.70
2018-10-18T23:14:30.481Z,87.97
2018-10-18T23:17:00.046Z,39.47
2018-10-18T23:19:30.145Z,31.67
2018-10-18T23:21:59.941Z,28.13
2018-10-18T23:24:38.579Z,36.53
2018-10-18T23:27:09.205Z,152.37
2018-10-18T23:29:40.322Z,41.40
2018-10-18T23:32:11.279Z,33.73
2018-10-18T23:34:40.990Z,24.87
2018-10-18T23:37:10.438Z,25.10
2018-10-18T23:39:41.434Z,24.33
2018-10-18T23:42:11.183Z,32.60
2018-10-18T23:44:41.113Z,20.67
2018-10-18T23:47:11.049Z,23.17
2018-10-18T23:49:46.761Z,22.07
2018-10-18T23:52:16.131Z,24.97
2018-10-18T23:54:45.703Z,35.50
2018-10-18T23:57:15.117Z,24.40
2018-10-18T23:59:46.282Z,22.30
